Pecatonica, IL (61063)

8:46 PM CDT on July 24, 2016 (GMT -0500)
Illinois Conservation Foundation (TYCEC) | | Change Station

Elev 744 ft 42.35 °N, 89.30 °W | Updated 25 seconds ago

Clear
Clear
79.7 °F
Feels Like 83 °F
N
0.0
Wind Variable Wind from WNW
Gusts 5.0 mph

Today
High -- | Low -- °F
--% Chance of Precip.
Yesterday
High -- | Low -- °F
Precip. -- in
Pressure 29.93 in
Visibility 10.0 miles
Clouds Clear
Heat Index 83 °F
Dew Point 71 °F
Humidity 76%
Rainfall 0.00 in
Snow Depth Not available.
5:42 AM 8:24 PM
Waning Gibbous, 71% visible
METAR KFEP 250135Z AUTO 32011KT 10SM CLR 27/20 A2993 RMK AO2 LTG DSNT E AND SE T02650203
Pressure 29.93 in
Visibility 10.0 miles
Clouds Clear
Heat Index 83 °F
Dew Point 71 °F
Humidity 76%
Rainfall 0.00 in
Snow Depth Not available.
5:42 AM 8:24 PM
Waning Gibbous, 71% visible
METAR KFEP 250135Z AUTO 32011KT 10SM CLR 27/20 A2993 RMK AO2 LTG DSNT E AND SE T02650203

10-Day Weather Forecast

Almanac

Astronomy

Jul. 24, 2016 Rise Set
Actual Time
Civil Twilight
Nautical Twilight
Astronomical Twilight
Moon
Length of Visible Light
Length of Day
Tomorrow will be .
, % of the Moon is Illuminated

Today's Extremes

State Highs State Lows

Community

WunderPhotos

Upload Photos

1,927,233 photos uploaded!

WunderBlog® & News

Nearby

Air Quality

  Air Quality AQ Index Pollutant
Not available.

Snow Depth

Station Depth Elevation

Earthquake Activity

City Distance Mag. Time & Date
Minimum magnitude displayed is 2.5.

Coastal Water Temperatures

Place Temperature

Stations

Nearby Weather Stations

Station Location Temp. Windchill Dew Point Humidity Wind Precip. Elev Updated Type
                   

Watches & Warnings

There are currently no watches in effect.